sensor_id;sensor_type;location;lat;lon;timestamp;pressure;altitude;pressure_sealevel;temperature;humidity
37764;BME280;23602;51.084;7.090;2022-10-13T00:02:00;100701.47;;;8.02;100.00
37764;BME280;23602;51.084;7.090;2022-10-13T00:04:26;100692.28;;;7.97;100.00
37764;BME280;23602;51.084;7.090;2022-10-13T00:06:52;100701.09;;;8.05;100.00
37764;BME280;23602;51.084;7.090;2022-10-13T00:09:18;100688.78;;;7.96;100.00
37764;BME280;23602;51.084;7.090;2022-10-13T00:11:44;100686.41;;;8.01;100.00
37764;BME280;23602;51.084;7.090;2022-10-13T00:14:09;100717.00;;;8.21;100.00
37764;BME280;23602;51.084;7.090;2022-10-13T00:16:38;100691.69;;;8.09;100.00
37764;BME280;23602;51.084;7.090;2022-10-13T00:19:04;100711.75;;;8.13;100.00
37764;BME280;23602;51.084;7.090;2022-10-13T00:21:29;100709.44;;;8.10;100.00
37764;BME280;23602;51.084;7.090;2022-10-13T00:23:55;100705.06;;;8.09;100.00
37764;BME280;23602;51.084;7.090;2022-10-13T00:26:22;100714.53;;;8.20;100.00
37764;BME280;23602;51.084;7.090;2022-10-13T00:28:51;100714.31;;;8.21;100.00
37764;BME280;23602;51.084;7.090;2022-10-13T00:31:30;100718.38;;;8.17;100.00
37764;BME280;23602;51.084;7.090;2022-10-13T00:33:58;100710.13;;;8.27;100.00
37764;BME280;23602;51.084;7.090;2022-10-13T00:36:24;100713.13;;;8.24;100.00
37764;BME280;23602;51.084;7.090;2022-10-13T00:38:52;100704.47;;;8.22;100.00
37764;BME280;23602;51.084;7.090;2022-10-13T00:41:18;100699.09;;;8.22;100.00
37764;BME280;23602;51.084;7.090;2022-10-13T00:44:01;100721.41;;;8.37;100.00
37764;BME280;23602;51.084;7.090;2022-10-13T00:46:29;100702.75;;;8.29;100.00
37764;BME280;23602;51.084;7.090;2022-10-13T00:48:58;100714.88;;;8.40;100.00
37764;BME280;23602;51.084;7.090;2022-10-13T00:51:26;100718.59;;;8.39;100.00
37764;BME280;23602;51.084;7.090;2022-10-13T00:53:53;100731.88;;;8.47;100.00
37764;BME280;23602;51.084;7.090;2022-10-13T00:56:22;100722.06;;;8.39;100.00
37764;BME280;23602;51.084;7.090;2022-10-13T00:58:48;100728.56;;;8.45;100.00
37764;BME280;23602;51.084;7.090;2022-10-13T01:01:14;100723.19;;;8.45;100.00
37764;BME280;23602;51.084;7.090;2022-10-13T01:03:40;100711.19;;;8.41;100.00
37764;BME280;23602;51.084;7.090;2022-10-13T01:06:06;100721.63;;;8.50;100.00
37764;BME280;23602;51.084;7.090;2022-10-13T01:08:33;100698.81;;;8.40;100.00
37764;BME280;23602;51.084;7.090;2022-10-13T01:11:25;100713.50;;;8.44;100.00
37764;BME280;23602;51.084;7.090;2022-10-13T01:19:05;100695.84;;;8.49;100.00
37764;BME280;23602;51.084;7.090;2022-10-13T01:22:03;100687.94;;;8.56;100.00
37764;BME280;23602;51.084;7.090;2022-10-13T01:24:46;100688.50;;;8.51;100.00
37764;BME280;23602;51.084;7.090;2022-10-13T01:27:27;100669.56;;;8.53;100.00
37764;BME280;23602;51.084;7.090;2022-10-13T01:30:07;100663.91;;;8.48;100.00
37764;BME280;23602;51.084;7.090;2022-10-13T01:32:47;100674.56;;;8.56;100.00
37764;BME280;23602;51.084;7.090;2022-10-13T01:35:44;100675.56;;;8.55;100.00
37764;BME280;23602;51.084;7.090;2022-10-13T01:43:33;100672.88;;;8.55;100.00
37764;BME280;23602;51.084;7.090;2022-10-13T01:46:09;100661.88;;;8.50;100.00
37764;BME280;23602;51.084;7.090;2022-10-13T01:48:37;100673.06;;;8.53;100.00
37764;BME280;23602;51.084;7.090;2022-10-13T01:51:06;100672.88;;;8.55;100.00
37764;BME280;23602;51.084;7.090;2022-10-13T01:53:33;100658.28;;;8.57;100.00
37764;BME280;23602;51.084;7.090;2022-10-13T01:56:00;100652.09;;;8.57;100.00
37764;BME280;23602;51.084;7.090;2022-10-13T01:58:29;100660.31;;;8.55;100.00
37764;BME280;23602;51.084;7.090;2022-10-13T02:06:31;100647.47;;;8.51;100.00
37764;BME280;23602;51.084;7.090;2022-10-13T02:09:04;100650.88;;;8.59;100.00
37764;BME280;23602;51.084;7.090;2022-10-13T02:11:30;100651.09;;;8.58;100.00
37764;BME280;23602;51.084;7.090;2022-10-13T02:14:02;100638.41;;;8.52;100.00
37764;BME280;23602;51.084;7.090;2022-10-13T02:16:33;100645.91;;;8.56;100.00
37764;BME280;23602;51.084;7.090;2022-10-13T02:19:01;100658.91;;;8.59;100.00
37764;BME280;23602;51.084;7.090;2022-10-13T02:21:29;100639.63;;;8.49;100.00
37764;BME280;23602;51.084;7.090;2022-10-13T02:23:57;100653.88;;;8.64;100.00
37764;BME280;23602;51.084;7.090;2022-10-13T02:26:23;100655.50;;;8.65;100.00
37764;BME280;23602;51.084;7.090;2022-10-13T02:28:52;100631.03;;;8.54;100.00
37764;BME280;23602;51.084;7.090;2022-10-13T02:31:18;100653.66;;;8.66;100.00
37764;BME280;23602;51.084;7.090;2022-10-13T02:33:44;100630.00;;;8.55;100.00
37764;BME280;23602;51.084;7.090;2022-10-13T02:36:10;100644.22;;;8.70;100.00
37764;BME280;23602;51.084;7.090;2022-10-13T02:38:36;100657.28;;;8.73;100.00
37764;BME280;23602;51.084;7.090;2022-10-13T02:41:02;100649.50;;;8.63;100.00
37764;BME280;23602;51.084;7.090;2022-10-13T02:43:28;100635.75;;;8.66;100.00
37764;BME280;23602;51.084;7.090;2022-10-13T02:45:53;100642.09;;;8.80;100.00
37764;BME280;23602;51.084;7.090;2022-10-13T02:48:19;100649.97;;;8.81;100.00
37764;BME280;23602;51.084;7.090;2022-10-13T02:50:45;100648.03;;;8.75;100.00
37764;BME280;23602;51.084;7.090;2022-10-13T02:53:12;100637.78;;;8.64;100.00
37764;BME280;23602;51.084;7.090;2022-10-13T02:55:40;100639.28;;;8.67;100.00
37764;BME280;23602;51.084;7.090;2022-10-13T02:58:06;100642.59;;;8.69;100.00
37764;BME280;23602;51.084;7.090;2022-10-13T03:00:31;100638.72;;;8.71;100.00
37764;BME280;23602;51.084;7.090;2022-10-13T03:03:01;100641.28;;;8.65;100.00
37764;BME280;23602;51.084;7.090;2022-10-13T03:05:27;100641.84;;;8.60;100.00
37764;BME280;23602;51.084;7.090;2022-10-13T03:07:53;100644.34;;;8.62;100.00
37764;BME280;23602;51.084;7.090;2022-10-13T03:10:18;100656.81;;;8.69;100.00
37764;BME280;23602;51.084;7.090;2022-10-13T03:12:44;100642.59;;;8.69;100.00
37764;BME280;23602;51.084;7.090;2022-10-13T03:15:10;100636.00;;;8.86;100.00
37764;BME280;23602;51.084;7.090;2022-10-13T03:17:36;100656.53;;;8.94;100.00
37764;BME280;23602;51.084;7.090;2022-10-13T03:20:03;100627.06;;;8.79;100.00
37764;BME280;23602;51.084;7.090;2022-10-13T03:22:32;100634.34;;;8.85;100.00
37764;BME280;23602;51.084;7.090;2022-10-13T03:24:58;100638.69;;;8.86;100.00
37764;BME280;23602;51.084;7.090;2022-10-13T03:27:24;100632.69;;;8.84;100.00
37764;BME280;23602;51.084;7.090;2022-10-13T03:29:50;100621.69;;;8.79;100.00
37764;BME280;23602;51.084;7.090;2022-10-13T03:32:16;100636.34;;;8.98;100.00
37764;BME280;23602;51.084;7.090;2022-10-13T03:34:41;100621.22;;;8.90;100.00
37764;BME280;23602;51.084;7.090;2022-10-13T03:37:07;100623.78;;;8.98;100.00
37764;BME280;23602;51.084;7.090;2022-10-13T03:39:33;100623.16;;;8.96;100.00
37764;BME280;23602;51.084;7.090;2022-10-13T03:42:02;100620.84;;;8.93;100.00
37764;BME280;23602;51.084;7.090;2022-10-13T03:44:28;100614.47;;;8.94;100.00
37764;BME280;23602;51.084;7.090;2022-10-13T03:46:53;100604.50;;;8.88;100.00
37764;BME280;23602;51.084;7.090;2022-10-13T03:49:20;100620.09;;;8.99;100.00
37764;BME280;23602;51.084;7.090;2022-10-13T03:51:46;100611.44;;;8.97;100.00
37764;BME280;23602;51.084;7.090;2022-10-13T03:54:13;100595.25;;;8.90;100.00
37764;BME280;23602;51.084;7.090;2022-10-13T03:56:39;100601.34;;;8.99;100.00
37764;BME280;23602;51.084;7.090;2022-10-13T03:59:05;100604.59;;;8.95;100.00
37764;BME280;23602;51.084;7.090;2022-10-13T04:01:32;100617.06;;;9.02;100.00
37764;BME280;23602;51.084;7.090;2022-10-13T04:03:59;100588.69;;;8.93;100.00
37764;BME280;23602;51.084;7.090;2022-10-13T04:06:27;100601.88;;;9.09;100.00
37764;BME280;23602;51.084;7.090;2022-10-13T04:08:53;100585.44;;;8.98;100.00
37764;BME280;23602;51.084;7.090;2022-10-13T04:11:20;100599.94;;;9.03;100.00
37764;BME280;23602;51.084;7.090;2022-10-13T04:13:46;100598.94;;;9.04;100.00
37764;BME280;23602;51.084;7.090;2022-10-13T04:16:22;100585.94;;;9.08;100.00
37764;BME280;23602;51.084;7.090;2022-10-13T04:18:57;100599.19;;;9.09;100.00
37764;BME280;23602;51.084;7.090;2022-10-13T04:21:27;100594.94;;;9.00;100.00
37764;BME280;23602;51.084;7.090;2022-10-13T04:23:55;100600.56;;;9.05;100.00
37764;BME280;23602;51.084;7.090;2022-10-13T04:26:22;100596.63;;;9.01;100.00
37764;BME280;23602;51.084;7.090;2022-10-13T04:28:50;100587.94;;;8.99;100.00
37764;BME280;23602;51.084;7.090;2022-10-13T04:31:17;100590.88;;;9.04;100.00
37764;BME280;23602;51.084;7.090;2022-10-13T04:33:43;100571.22;;;8.97;100.00
37764;BME280;23602;51.084;7.090;2022-10-13T04:36:10;100554.88;;;8.92;100.00
37764;BME280;23602;51.084;7.090;2022-10-13T04:38:40;100579.97;;;9.06;100.00
37764;BME280;23602;51.084;7.090;2022-10-13T04:41:07;100575.84;;;9.24;100.00
37764;BME280;23602;51.084;7.090;2022-10-13T04:43:33;100564.66;;;9.21;100.00
37764;BME280;23602;51.084;7.090;2022-10-13T04:46:04;100570.41;;;9.18;100.00
37764;BME280;23602;51.084;7.090;2022-10-13T04:48:30;100558.06;;;9.02;100.00
37764;BME280;23602;51.084;7.090;2022-10-13T04:51:04;100564.44;;;9.01;100.00
37764;BME280;23602;51.084;7.090;2022-10-13T04:53:30;100561.50;;;8.96;100.00
37764;BME280;23602;51.084;7.090;2022-10-13T04:56:00;100565.44;;;9.00;100.00
37764;BME280;23602;51.084;7.090;2022-10-13T04:58:26;100556.16;;;8.96;100.00
37764;BME280;23602;51.084;7.090;2022-10-13T05:00:54;100559.66;;;8.97;100.00
37764;BME280;23602;51.084;7.090;2022-10-13T05:03:20;100544.16;;;8.92;100.00
37764;BME280;23602;51.084;7.090;2022-10-13T05:05:46;100559.19;;;8.93;100.00
37764;BME280;23602;51.084;7.090;2022-10-13T05:08:11;100560.28;;;8.99;100.00
37764;BME280;23602;51.084;7.090;2022-10-13T05:10:37;100564.91;;;9.05;100.00
37764;BME280;23602;51.084;7.090;2022-10-13T05:13:03;100563.88;;;9.06;100.00
37764;BME280;23602;51.084;7.090;2022-10-13T05:15:28;100557.41;;;9.00;100.00
37764;BME280;23602;51.084;7.090;2022-10-13T05:17:54;100564.91;;;9.05;100.00
37764;BME280;23602;51.084;7.090;2022-10-13T05:20:19;100572.13;;;9.04;100.00
37764;BME280;23602;51.084;7.090;2022-10-13T05:22:45;100566.56;;;9.06;100.00
37764;BME280;23602;51.084;7.090;2022-10-13T05:25:11;100547.09;;;8.97;100.00
37764;BME280;23602;51.084;7.090;2022-10-13T05:27:36;100563.03;;;9.05;100.00
37764;BME280;23602;51.084;7.090;2022-10-13T05:30:02;100557.03;;;9.03;100.00
37764;BME280;23602;51.084;7.090;2022-10-13T05:32:30;100577.28;;;9.06;100.00
37764;BME280;23602;51.084;7.090;2022-10-13T05:34:57;100560.75;;;9.02;100.00
37764;BME280;23602;51.084;7.090;2022-10-13T05:37:23;100560.28;;;8.99;100.00
37764;BME280;23602;51.084;7.090;2022-10-13T05:39:48;100556.34;;;8.95;100.00
37764;BME280;23602;51.084;7.090;2022-10-13T05:42:14;100556.97;;;8.97;100.00
37764;BME280;23602;51.084;7.090;2022-10-13T05:44:41;100557.03;;;9.03;100.00
37764;BME280;23602;51.084;7.090;2022-10-13T05:47:07;100581.53;;;9.15;100.00
37764;BME280;23602;51.084;7.090;2022-10-13T05:49:32;100566.94;;;9.03;100.00
37764;BME280;23602;51.084;7.090;2022-10-13T05:52:02;100551.03;;;9.01;100.00
37764;BME280;23602;51.084;7.090;2022-10-13T05:54:43;100536.81;;;9.01;100.00
37764;BME280;23602;51.084;7.090;2022-10-13T05:57:18;100508.91;;;8.95;100.00
37764;BME280;23602;51.084;7.090;2022-10-13T05:59:52;100538.09;;;9.05;100.00
37764;BME280;23602;51.084;7.090;2022-10-13T06:02:22;100528.13;;;8.99;100.00
37764;BME280;23602;51.084;7.090;2022-10-13T06:04:51;100534.31;;;8.99;100.00
37764;BME280;23602;51.084;7.090;2022-10-13T06:07:19;100524.97;;;8.95;100.00
37764;BME280;23602;51.084;7.090;2022-10-13T06:09:46;100538.09;;;9.05;100.00
37764;BME280;23602;51.084;7.090;2022-10-13T06:12:11;100531.28;;;9.02;100.00
37764;BME280;23602;51.084;7.090;2022-10-13T06:14:37;100535.03;;;9.08;100.00
37764;BME280;23602;51.084;7.090;2022-10-13T06:17:03;100531.06;;;9.04;100.00
37764;BME280;23602;51.084;7.090;2022-10-13T06:19:28;100524.03;;;9.03;100.00
37764;BME280;23602;51.084;7.090;2022-10-13T06:21:57;100519.44;;;8.97;100.00
37764;BME280;23602;51.084;7.090;2022-10-13T06:24:23;100536.31;;;9.12;100.00
37764;BME280;23602;51.084;7.090;2022-10-13T06:26:49;100528.19;;;9.05;100.00
37764;BME280;23602;51.084;7.090;2022-10-13T06:29:15;100525.66;;;9.18;100.00
37764;BME280;23602;51.084;7.090;2022-10-13T06:31:43;100530.56;;;9.15;100.00
37764;BME280;23602;51.084;7.090;2022-10-13T06:34:08;100515.88;;;9.11;100.00
37764;BME280;23602;51.084;7.090;2022-10-13T06:36:34;100530.38;;;9.16;100.00
37764;BME280;23602;51.084;7.090;2022-10-13T06:39:00;100542.91;;;9.30;100.00
37764;BME280;23602;51.084;7.090;2022-10-13T06:41:26;100551.75;;;9.31;100.00
37764;BME280;23602;51.084;7.090;2022-10-13T06:43:52;100549.75;;;9.33;100.00
37764;BME280;23602;51.084;7.090;2022-10-13T06:46:20;100535.63;;;9.24;100.00
37764;BME280;23602;51.084;7.090;2022-10-13T06:48:48;100546.72;;;9.42;100.00
37764;BME280;23602;51.084;7.090;2022-10-13T06:51:16;100547.56;;;9.43;100.00
37764;BME280;23602;51.084;7.090;2022-10-13T06:53:42;100533.19;;;9.50;100.00
37764;BME280;23602;51.084;7.090;2022-10-13T06:56:08;100544.16;;;9.56;100.00
37764;BME280;23602;51.084;7.090;2022-10-13T06:58:35;100509.69;;;9.52;100.00
37764;BME280;23602;51.084;7.090;2022-10-13T07:01:02;100510.94;;;9.57;100.00
37764;BME280;23602;51.084;7.090;2022-10-13T07:03:28;100511.63;;;9.65;100.00
37764;BME280;23602;51.084;7.090;2022-10-13T07:05:58;100510.41;;;9.68;100.00
37764;BME280;23602;51.084;7.090;2022-10-13T07:08:24;100518.56;;;9.81;100.00
37764;BME280;23602;51.084;7.090;2022-10-13T07:10:50;100507.59;;;9.76;100.00
37764;BME280;23602;51.084;7.090;2022-10-13T07:13:15;100493.59;;;9.87;100.00
37764;BME280;23602;51.084;7.090;2022-10-13T07:15:41;100485.03;;;9.98;100.00
37764;BME280;23602;51.084;7.090;2022-10-13T07:18:10;100473.41;;;9.91;100.00
37764;BME280;23602;51.084;7.090;2022-10-13T07:20:35;100465.09;;;10.13;100.00
37764;BME280;23602;51.084;7.090;2022-10-13T07:23:01;100462.94;;;10.37;100.00
37764;BME280;23602;51.084;7.090;2022-10-13T07:25:27;100455.25;;;10.27;100.00
37764;BME280;23602;51.084;7.090;2022-10-13T07:27:53;100448.69;;;10.36;100.00
37764;BME280;23602;51.084;7.090;2022-10-13T07:30:19;100462.78;;;10.51;100.00
37764;BME280;23602;51.084;7.090;2022-10-13T07:32:47;100454.13;;;10.56;100.00
37764;BME280;23602;51.084;7.090;2022-10-13T07:35:13;100456.84;;;10.62;100.00
37764;BME280;23602;51.084;7.090;2022-10-13T07:37:38;100455.56;;;10.58;100.00
37764;BME280;23602;51.084;7.090;2022-10-13T07:40:07;100460.75;;;10.60;100.00
37764;BME280;23602;51.084;7.090;2022-10-13T07:42:32;100452.88;;;10.52;100.00
37764;BME280;23602;51.084;7.090;2022-10-13T07:44:58;100472.09;;;10.55;100.00
37764;BME280;23602;51.084;7.090;2022-10-13T07:47:24;100461.56;;;10.60;100.00
37764;BME280;23602;51.084;7.090;2022-10-13T07:49:53;100456.84;;;10.62;100.00
37764;BME280;23602;51.084;7.090;2022-10-13T07:52:22;100459.53;;;10.75;100.00
37764;BME280;23602;51.084;7.090;2022-10-13T07:54:49;100451.72;;;10.94;100.00
37764;BME280;23602;51.084;7.090;2022-10-13T07:57:15;100430.63;;;10.77;100.00
37764;BME280;23602;51.084;7.090;2022-10-13T07:59:44;100443.66;;;10.87;100.00
37764;BME280;23602;51.084;7.090;2022-10-13T08:02:09;100421.94;;;10.89;100.00
37764;BME280;23602;51.084;7.090;2022-10-13T08:04:35;100404.59;;;11.11;100.00
37764;BME280;23602;51.084;7.090;2022-10-13T08:07:02;100377.50;;;11.06;100.00
37764;BME280;23602;51.084;7.090;2022-10-13T08:09:28;100412.88;;;11.03;100.00
37764;BME280;23602;51.084;7.090;2022-10-13T08:11:54;100438.50;;;11.12;100.00
37764;BME280;23602;51.084;7.090;2022-10-13T08:14:19;100403.56;;;11.25;100.00
37764;BME280;23602;51.084;7.090;2022-10-13T08:16:46;100371.06;;;11.33;100.00
37764;BME280;23602;51.084;7.090;2022-10-13T08:19:15;100367.34;;;11.27;100.00
37764;BME280;23602;51.084;7.090;2022-10-13T08:21:49;100371.50;;;11.23;100.00
37764;BME280;23602;51.084;7.090;2022-10-13T08:24:17;100386.78;;;11.16;100.00
37764;BME280;23602;51.084;7.090;2022-10-13T08:26:45;100426.31;;;11.35;100.00
37764;BME280;23602;51.084;7.090;2022-10-13T08:29:12;100424.84;;;11.26;100.00
37764;BME280;23602;51.084;7.090;2022-10-13T08:31:41;100434.81;;;11.32;100.00
37764;BME280;23602;51.084;7.090;2022-10-13T08:34:08;100436.88;;;11.30;100.00
37764;BME280;23602;51.084;7.090;2022-10-13T08:36:37;100455.50;;;11.52;100.00
37764;BME280;23602;51.084;7.090;2022-10-13T08:39:03;100436.25;;;11.48;100.00
37764;BME280;23602;51.084;7.090;2022-10-13T08:41:31;100450.53;;;11.68;100.00
37764;BME280;23602;51.084;7.090;2022-10-13T08:44:03;100449.69;;;11.81;100.00
37764;BME280;23602;51.084;7.090;2022-10-13T08:46:38;100424.63;;;11.67;100.00
37764;BME280;23602;51.084;7.090;2022-10-13T08:49:09;100442.22;;;11.83;100.00
37764;BME280;23602;51.084;7.090;2022-10-13T08:51:36;100439.34;;;11.84;100.00
37764;BME280;23602;51.084;7.090;2022-10-13T08:54:03;100429.34;;;11.98;100.00
37764;BME280;23602;51.084;7.090;2022-10-13T08:56:33;100431.81;;;12.13;100.00
37764;BME280;23602;51.084;7.090;2022-10-13T08:58:59;100375.88;;;12.01;100.00
37764;BME280;23602;51.084;7.090;2022-10-13T09:01:33;100392.84;;;12.09;100.00
37764;BME280;23602;51.084;7.090;2022-10-13T09:06:53;100397.28;;;12.34;100.00
37764;BME280;23602;51.084;7.090;2022-10-13T09:09:20;100369.50;;;12.40;100.00
37764;BME280;23602;51.084;7.090;2022-10-13T09:11:49;100374.25;;;12.38;100.00
37764;BME280;23602;51.084;7.090;2022-10-13T09:14:24;100372.50;;;12.57;100.00
37764;BME280;23602;51.084;7.090;2022-10-13T09:16:52;100366.00;;;12.64;100.00
37764;BME280;23602;51.084;7.090;2022-10-13T09:19:31;100378.41;;;12.72;100.00
37764;BME280;23602;51.084;7.090;2022-10-13T09:22:21;100377.16;;;12.75;100.00
37764;BME280;23602;51.084;7.090;2022-10-13T09:24:58;100366.53;;;13.04;100.00
37764;BME280;23602;51.084;7.090;2022-10-13T09:27:27;100315.50;;;13.03;100.00
37764;BME280;23602;51.084;7.090;2022-10-13T09:29:53;100336.63;;;13.12;100.00
37764;BME280;23602;51.084;7.090;2022-10-13T09:32:22;100354.41;;;13.20;100.00
37764;BME280;23602;51.084;7.090;2022-10-13T09:34:49;100320.00;;;13.15;100.00
37764;BME280;23602;51.084;7.090;2022-10-13T09:37:26;100346.59;;;13.12;100.00
37764;BME280;23602;51.084;7.090;2022-10-13T09:40:32;100321.22;;;13.38;100.00
37764;BME280;23602;51.084;7.090;2022-10-13T09:42:55;100334.00;;;13.49;100.00
37764;BME280;23602;51.084;7.090;2022-10-13T09:45:23;100346.50;;;13.43;100.00
37764;BME280;23602;51.084;7.090;2022-10-13T09:47:58;100343.59;;;13.45;100.00
37764;BME280;23602;51.084;7.090;2022-10-13T09:50:27;100349.06;;;13.56;100.00
37764;BME280;23602;51.084;7.090;2022-10-13T09:55:45;100314.66;;;14.18;100.00
37764;BME280;23602;51.084;7.090;2022-10-13T09:58:27;100317.84;;;14.26;100.00
37764;BME280;23602;51.084;7.090;2022-10-13T10:00:55;100292.78;;;14.37;100.00
37764;BME280;23602;51.084;7.090;2022-10-13T10:03:30;100283.09;;;14.30;100.00
37764;BME280;23602;51.084;7.090;2022-10-13T10:06:01;100292.91;;;14.42;100.00
37764;BME280;23602;51.084;7.090;2022-10-13T10:08:40;100294.63;;;14.67;100.00
37764;BME280;23602;51.084;7.090;2022-10-13T10:11:14;100271.41;;;14.47;100.00
37764;BME280;23602;51.084;7.090;2022-10-13T10:13:41;100275.91;;;14.53;100.00
37764;BME280;23602;51.084;7.090;2022-10-13T10:16:24;100270.84;;;14.57;100.00
37764;BME280;23602;51.084;7.090;2022-10-13T10:21:58;100285.44;;;14.56;100.00
37764;BME280;23602;51.084;7.090;2022-10-13T10:27:27;100271.09;;;14.67;100.00
37764;BME280;23602;51.084;7.090;2022-10-13T10:30:04;100273.91;;;14.61;100.00
37764;BME280;23602;51.084;7.090;2022-10-13T10:32:56;100247.72;;;14.96;100.00
37764;BME280;23602;51.084;7.090;2022-10-13T10:35:47;100269.81;;;14.93;100.00
37764;BME280;23602;51.084;7.090;2022-10-13T10:41:11;100267.47;;;15.19;100.00
37764;BME280;23602;51.084;7.090;2022-10-13T10:43:47;100241.69;;;15.29;100.00
37764;BME280;23602;51.084;7.090;2022-10-13T10:46:20;100241.69;;;15.29;100.00
37764;BME280;23602;51.084;7.090;2022-10-13T10:48:49;100261.94;;;15.26;100.00
37764;BME280;23602;51.084;7.090;2022-10-13T10:51:18;100249.25;;;15.15;100.00
37764;BME280;23602;51.084;7.090;2022-10-13T10:56:33;100236.31;;;14.94;100.00
37764;BME280;23602;51.084;7.090;2022-10-13T11:04:43;100251.81;;;14.98;100.00
37764;BME280;23602;51.084;7.090;2022-10-13T11:15:08;100240.53;;;15.01;100.00
37764;BME280;23602;51.084;7.090;2022-10-13T11:17:36;100219.56;;;15.08;100.00
37764;BME280;23602;51.084;7.090;2022-10-13T11:25:45;100218.59;;;15.49;100.00
37764;BME280;23602;51.084;7.090;2022-10-13T11:30:47;100214.47;;;15.58;100.00
37764;BME280;23602;51.084;7.090;2022-10-13T11:48:04;100220.66;;;14.96;100.00
37764;BME280;23602;51.084;7.090;2022-10-13T11:53:24;100219.94;;;15.00;100.00
37764;BME280;23602;51.084;7.090;2022-10-13T11:55:53;100212.31;;;14.86;100.00
37764;BME280;23602;51.084;7.090;2022-10-13T11:58:25;100224.66;;;14.82;100.00
37764;BME280;23602;51.084;7.090;2022-10-13T12:03:34;100194.06;;;14.93;100.00
37764;BME280;23602;51.084;7.090;2022-10-13T12:06:04;100211.94;;;14.82;100.00
37764;BME280;23602;51.084;7.090;2022-10-13T12:08:33;100203.13;;;14.64;100.00
37764;BME280;23602;51.084;7.090;2022-10-13T12:10:59;100189.38;;;14.77;100.00
37764;BME280;23602;51.084;7.090;2022-10-13T12:13:30;100206.88;;;14.86;100.00
37764;BME280;23602;51.084;7.090;2022-10-13T12:16:04;100218.78;;;14.62;100.00
37764;BME280;23602;51.084;7.090;2022-10-13T12:18:38;100221.81;;;14.53;100.00
37764;BME280;23602;51.084;7.090;2022-10-13T12:21:15;100218.63;;;14.33;100.00
37764;BME280;23602;51.084;7.090;2022-10-13T12:23:44;100219.94;;;14.24;100.00
37764;BME280;23602;51.084;7.090;2022-10-13T12:26:19;100241.88;;;14.34;100.00
37764;BME280;23602;51.084;7.090;2022-10-13T12:28:59;100250.44;;;14.31;100.00
37764;BME280;23602;51.084;7.090;2022-10-13T12:31:28;100244.28;;;14.24;100.00
37764;BME280;23602;51.084;7.090;2022-10-13T12:33:59;100244.53;;;14.23;100.00
37764;BME280;23602;51.084;7.090;2022-10-13T12:36:28;100240.25;;;14.33;100.00
37764;BME280;23602;51.084;7.090;2022-10-13T12:39:02;100265.91;;;14.54;100.00
37764;BME280;23602;51.084;7.090;2022-10-13T12:41:31;100241.69;;;14.71;100.00
37764;BME280;23602;51.084;7.090;2022-10-13T12:43:57;100226.88;;;14.73;100.00
37764;BME280;23602;51.084;7.090;2022-10-13T12:46:43;100214.19;;;14.97;100.00
37764;BME280;23602;51.084;7.090;2022-10-13T12:49:15;100211.84;;;14.89;100.00
37764;BME280;23602;51.084;7.090;2022-10-13T12:54:33;100197.72;;;14.87;100.00
37764;BME280;23602;51.084;7.090;2022-10-13T12:57:03;100228.19;;;14.94;100.00
37764;BME280;23602;51.084;7.090;2022-10-13T12:59:29;100227.50;;;14.87;100.00
37764;BME280;23602;51.084;7.090;2022-10-13T13:02:00;100229.22;;;14.93;100.00
37764;BME280;23602;51.084;7.090;2022-10-13T13:04:38;100223.59;;;15.06;100.00
37764;BME280;23602;51.084;7.090;2022-10-13T13:07:24;100238.41;;;15.27;100.00
37764;BME280;23602;51.084;7.090;2022-10-13T13:12:32;100200.44;;;15.38;100.00
37764;BME280;23602;51.084;7.090;2022-10-13T13:15:36;100205.75;;;15.33;100.00
37764;BME280;23602;51.084;7.090;2022-10-13T13:18:23;100228.50;;;15.32;100.00
37764;BME280;23602;51.084;7.090;2022-10-13T13:21:00;100201.66;;;15.31;100.00
37764;BME280;23602;51.084;7.090;2022-10-13T13:23:26;100188.50;;;15.11;100.00
37764;BME280;23602;51.084;7.090;2022-10-13T13:26:17;100206.28;;;15.07;100.00
37764;BME280;23602;51.084;7.090;2022-10-13T13:28:56;100222.19;;;14.92;100.00
37764;BME280;23602;51.084;7.090;2022-10-13T13:31:23;100219.22;;;14.70;100.00
37764;BME280;23602;51.084;7.090;2022-10-13T13:33:49;100232.63;;;14.65;100.00
37764;BME280;23602;51.084;7.090;2022-10-13T13:36:17;100239.66;;;14.54;100.00
37764;BME280;23602;51.084;7.090;2022-10-13T13:38:44;100253.91;;;14.50;100.00
37764;BME280;23602;51.084;7.090;2022-10-13T13:41:10;100240.81;;;14.35;100.00
37764;BME280;23602;51.084;7.090;2022-10-13T13:43:37;100240.88;;;14.29;100.00
37764;BME280;23602;51.084;7.090;2022-10-13T13:46:04;100254.59;;;14.34;100.00
37764;BME280;23602;51.084;7.090;2022-10-13T13:48:31;100251.34;;;14.25;100.00
37764;BME280;23602;51.084;7.090;2022-10-13T13:50:57;100258.38;;;14.26;100.00
37764;BME280;23602;51.084;7.090;2022-10-13T13:53:22;100269.97;;;14.33;100.00
37764;BME280;23602;51.084;7.090;2022-10-13T13:55:48;100258.63;;;14.25;100.00
37764;BME280;23602;51.084;7.090;2022-10-13T13:58:14;100254.94;;;14.37;100.00
37764;BME280;23602;51.084;7.090;2022-10-13T14:00:40;100247.72;;;14.31;100.00
37764;BME280;23602;51.084;7.090;2022-10-13T14:03:05;100255.38;;;14.34;100.00
37764;BME280;23602;51.084;7.090;2022-10-13T14:05:31;100249.09;;;14.22;100.00
37764;BME280;23602;51.084;7.090;2022-10-13T14:07:57;100260.16;;;14.21;100.00
37764;BME280;23602;51.084;7.090;2022-10-13T14:10:26;100265.78;;;14.19;100.00
37764;BME280;23602;51.084;7.090;2022-10-13T14:12:54;100257.53;;;14.14;100.00
37764;BME280;23602;51.084;7.090;2022-10-13T14:15:20;100260.09;;;14.09;100.00
37764;BME280;23602;51.084;7.090;2022-10-13T14:17:52;100271.50;;;14.11;100.00